Time;durP1;ratioP1;P1;durP2;ratioP2;P2;SDS_P1;SDS_P2;PMS_P1;PMS_P2;Temp;Humidity;BMP_temperature;BMP_pressure;BME280_temperature;BME280_humidity;BME280_pressure;Samples;Min_cycle;Max_cycle;Signal;HPM_P1;HPM_P2
2024/01/07 00:00:01;;;;;;;26.08;17.92;;;;;;;8.14;100.00;96847.22;5072051;28;20659;-58
2024/01/07 00:02:27;;;;;;;28.60;17.95;;;;;;;8.70;100.00;96923.19;5071383;28;20675;-58
2024/01/07 00:04:52;;;;;;;30.83;19.48;;;;;;;8.45;100.00;96876.41;5071707;28;20165;-58
2024/01/07 00:07:17;;;;;;;35.10;21.50;;;;;;;8.16;100.00;96818.75;5029437;28;20290;-58
2024/01/07 00:09:43;;;;;;;39.00;22.17;;;;;;;8.72;100.00;96903.25;5029618;28;20214;-58
2024/01/07 00:12:08;;;;;;;42.38;24.27;;;;;;;8.33;100.00;96811.25;5029466;28;20261;-58
2024/01/07 00:14:34;;;;;;;41.00;25.02;;;;;;;8.42;100.00;96815.63;5029523;28;20178;-58
2024/01/07 00:16:59;;;;;;;36.97;24.23;;;;;;;8.40;100.00;96843.28;5029301;28;20186;-58
2024/01/07 00:19:25;;;;;;;46.72;24.15;;;;;;;7.97;100.00;96809.16;5029363;28;20681;-58
2024/01/07 00:21:50;;;;;;;37.78;23.92;;;;;;;7.88;100.00;96794.50;5029410;28;20186;-58
2024/01/07 00:24:16;;;;;;;40.67;25.90;;;;;;;7.68;100.00;96782.44;5029340;28;20178;-58
2024/01/07 00:26:41;;;;;;;44.65;27.40;;;;;;;8.18;100.00;96869.19;5029314;28;20198;-58
2024/01/07 00:29:07;;;;;;;42.63;28.35;;;;;;;7.47;100.00;96757.69;5026552;28;20206;-58
2024/01/07 00:31:32;;;;;;;48.95;28.27;;;;;;;7.58;100.00;96737.81;5028971;28;20198;-58
2024/01/07 00:33:58;;;;;;;43.13;26.85;;;;;;;7.65;100.00;96764.69;5029198;28;20273;-58
2024/01/07 00:36:23;;;;;;;38.72;22.63;;;;;;;8.02;100.00;96825.06;5029174;28;20233;-58
2024/01/07 00:38:48;;;;;;;33.80;23.75;;;;;;;8.06;100.00;96841.06;5029216;28;20202;-58
2024/01/07 00:41:14;;;;;;;38.50;22.50;;;;;;;7.83;100.00;96786.34;5029190;28;20226;-58
2024/01/07 00:43:40;;;;;;;40.75;22.80;;;;;;;7.86;100.00;96786.06;5031573;28;20281;-58
2024/01/07 00:46:06;;;;;;;33.50;21.13;;;;;;;7.94;100.00;96788.00;5068965;28;20277;-58
2024/01/07 00:48:31;;;;;;;35.40;21.15;;;;;;;7.77;100.00;96755.13;5068931;28;20263;-58
2024/01/07 00:50:57;;;;;;;34.40;21.50;;;;;;;8.35;100.00;96840.28;5068977;28;20189;-58
2024/01/07 00:53:22;;;;;;;30.13;19.73;;;;;;;8.04;100.00;96791.44;5068945;28;20215;-58
2024/01/07 00:55:47;;;;;;;31.13;19.13;;;;;;;7.99;100.00;96755.75;5068835;28;20196;-58
2024/01/07 00:58:13;;;;;;;33.90;18.58;;;;;;;7.93;100.00;96743.41;5069156;28;20177;-58
2024/01/07 01:00:41;;;;;;;25.30;17.85;;;;;;;8.46;100.00;96821.34;5068998;28;20193;-58
2024/01/07 01:03:06;;;;;;;30.40;19.10;;;;;;;8.26;100.00;96768.91;5070709;28;20569;-58
2024/01/07 01:05:32;;;;;;;31.10;18.70;;;;;;;8.37;100.00;96773.97;5071237;28;20177;-58
2024/01/07 01:07:57;;;;;;;29.05;18.08;;;;;;;8.72;100.00;96791.53;5071272;28;20206;-58
2024/01/07 01:10:22;;;;;;;33.88;20.30;;;;;;;8.71;100.00;96761.56;5071146;28;20243;-58
2024/01/07 01:12:48;;;;;;;37.75;22.50;;;;;;;8.47;100.00;96699.25;5028646;28;20183;-58
2024/01/07 01:15:16;;;;;;;35.67;22.38;;;;;;;8.26;100.00;96663.28;5029107;28;20198;-58
2024/01/07 01:17:42;;;;;;;37.58;23.23;;;;;;;8.65;100.00;96719.09;5028670;28;20264;-58
2024/01/07 01:20:08;;;;;;;30.45;20.20;;;;;;;8.75;100.00;96724.25;5031558;28;20186;-58
2024/01/07 01:22:33;;;;;;;31.42;18.88;;;;;;;8.33;100.00;96636.03;5032641;28;20273;-58
2024/01/07 01:24:59;;;;;;;26.10;18.08;;;;;;;8.27;100.00;96626.28;5032771;28;20273;-58
2024/01/07 01:27:25;;;;;;;29.60;17.67;;;;;;;8.41;100.00;96659.41;5032644;28;20685;-58
2024/01/07 01:29:50;;;;;;;29.92;17.65;;;;;;;8.15;100.00;96601.56;5032493;28;20217;-58
2024/01/07 01:32:16;;;;;;;28.02;17.73;;;;;;;8.59;100.00;96668.09;5032472;28;20193;-58
2024/01/07 01:34:41;;;;;;;26.58;17.02;;;;;;;8.55;100.00;96663.31;5032572;28;20183;-58
2024/01/07 01:37:08;;;;;;;26.55;16.83;;;;;;;8.63;100.00;96659.13;5032522;28;20182;-58
2024/01/07 01:39:34;;;;;;;30.80;18.58;;;;;;;8.70;100.00;96644.75;5032352;28;20641;-58
2024/01/07 01:41:59;;;;;;;29.83;17.58;;;;;;;8.58;100.00;96622.66;5032460;28;20179;-58
2024/01/07 01:44:27;;;;;;;33.75;18.00;;;;;;;8.95;100.00;96684.63;5064281;28;20219;-58
2024/01/07 01:46:52;;;;;;;26.48;17.02;;;;;;;8.93;100.00;96669.31;5074575;28;20181;-58
2024/01/07 01:49:18;;;;;;;27.73;18.00;;;;;;;8.86;100.00;96655.31;5074526;28;20204;-58
2024/01/07 01:51:43;;;;;;;28.10;18.60;;;;;;;8.94;100.00;96678.66;5074574;28;20625;-58
2024/01/07 01:54:10;;;;;;;35.22;22.30;;;;;;;8.44;100.00;96561.19;5074489;28;20667;-58
2024/01/07 01:56:35;;;;;;;35.80;21.50;;;;;;;8.71;100.00;96599.97;5074439;28;20169;-58
2024/01/07 01:59:00;;;;;;;33.17;20.90;;;;;;;8.37;100.00;96547.22;5074083;28;20181;-58
2024/01/07 02:01:26;;;;;;;29.77;21.55;;;;;;;8.85;100.00;96627.91;5074290;28;20229;-58
2024/01/07 02:03:53;;;;;;;36.75;23.27;;;;;;;8.27;100.00;96528.38;5074363;28;20181;-58
2024/01/07 02:06:20;;;;;;;32.67;20.58;;;;;;;8.87;100.00;96613.13;5073725;28;20177;-58
2024/01/07 02:08:46;;;;;;;33.30;20.45;;;;;;;8.36;100.00;96511.28;5074137;28;20362;-58
2024/01/07 02:11:19;;;;;;;27.38;16.70;;;;;;;8.30;100.00;96458.56;5074192;28;20177;-58
2024/01/07 02:13:45;;;;;;;28.05;17.20;;;;;;;8.56;100.00;96498.25;5073984;28;20185;-58
2024/01/07 02:16:11;;;;;;;30.52;17.35;;;;;;;8.57;100.00;96492.13;5074130;28;20176;-58
2024/01/07 02:18:38;;;;;;;26.70;17.50;;;;;;;8.27;100.00;96419.41;5074092;28;20193;-58
2024/01/07 02:21:03;;;;;;;27.02;18.48;;;;;;;8.75;100.00;96502.53;5073891;28;20183;-58
2024/01/07 02:23:29;;;;;;;30.60;19.23;;;;;;;8.71;100.00;96499.44;5073991;28;20546;-58
2024/01/07 02:25:54;;;;;;;32.80;19.58;;;;;;;8.78;100.00;96484.19;5073632;28;20169;-58
2024/01/07 02:28:20;;;;;;;28.42;18.90;;;;;;;9.08;100.00;96505.41;5073761;28;20188;-58
2024/01/07 02:30:45;;;;;;;31.67;16.88;;;;;;;8.93;100.00;96472.47;5072657;28;20658;-58
2024/01/07 02:33:10;;;;;;;25.02;15.82;;;;;;;9.10;100.00;96487.22;5073555;28;20173;-58
2024/01/07 02:35:36;;;;;;;26.00;16.70;;;;;;;9.21;100.00;96505.88;5073816;28;20560;-58
2024/01/07 02:38:01;;;;;;;29.80;18.90;;;;;;;9.04;100.00;96487.78;5073753;28;20260;-58
2024/01/07 02:40:27;;;;;;;33.35;19.70;;;;;;;8.75;100.00;96428.56;5073642;28;20165;-58
2024/01/07 02:42:52;;;;;;;29.15;18.00;;;;;;;8.71;100.00;96418.69;5073614;28;20173;-58
2024/01/07 02:45:18;;;;;;;31.50;18.27;;;;;;;9.05;100.00;96487.66;5073837;28;20177;-58
2024/01/07 02:47:44;;;;;;;28.90;18.30;;;;;;;8.63;100.00;96413.44;5073526;28;20231;-58
2024/01/07 02:50:09;;;;;;;29.45;18.40;;;;;;;8.75;100.00;96461.28;5073136;28;20201;-58
2024/01/07 02:52:35;;;;;;;23.83;14.68;;;;;;;8.57;100.00;96450.09;5073741;28;20177;-58
2024/01/07 02:55:01;;;;;;;25.23;17.08;;;;;;;8.56;100.00;96431.22;5073121;28;20169;-58
2024/01/07 02:57:27;;;;;;;25.90;16.98;;;;;;;9.06;100.00;96515.06;5073307;28;20589;-58
2024/01/07 02:59:52;;;;;;;24.40;16.02;;;;;;;8.52;100.00;96405.88;5073321;28;20184;-58
2024/01/07 03:02:18;;;;;;;26.27;15.75;;;;;;;8.77;100.00;96423.28;5073211;28;20196;-58
2024/01/07 03:04:43;;;;;;;27.73;15.70;;;;;;;8.97;100.00;96435.94;5072886;28;20173;-58
2024/01/07 03:07:09;;;;;;;17.85;12.80;;;;;;;8.80;100.00;96382.56;5073064;28;20180;-58
2024/01/07 03:09:34;;;;;;;19.70;11.60;;;;;;;8.90;100.00;96403.94;5073008;28;20207;-58
2024/01/07 03:11:59;;;;;;;21.50;13.85;;;;;;;9.08;100.00;96437.53;5072945;28;20242;-58
2024/01/07 03:14:26;;;;;;;23.65;14.57;;;;;;;9.16;100.00;96466.81;5072957;28;20170;-58
2024/01/07 03:16:52;;;;;;;21.88;13.23;;;;;;;9.35;100.00;96482.19;5072534;28;20246;-58
2024/01/07 03:19:17;;;;;;;20.23;13.40;;;;;;;9.40;100.00;96480.00;5072461;28;20224;-58
2024/01/07 03:21:43;;;;;;;18.10;10.77;;;;;;;8.96;100.00;96395.63;5072828;28;20244;-58
2024/01/07 03:24:08;;;;;;;15.52;9.52;;;;;;;9.30;100.00;96455.19;5072695;28;20181;-58
2024/01/07 03:26:34;;;;;;;15.90;9.88;;;;;;;9.55;100.00;96496.59;5072692;28;20177;-58
2024/01/07 03:29:00;;;;;;;15.43;10.48;;;;;;;9.50;100.00;96495.41;5072780;28;20208;-58
2024/01/07 03:31:26;;;;;;;16.60;10.93;;;;;;;9.10;100.00;96420.13;5072538;28;20178;-58
2024/01/07 03:33:52;;;;;;;13.52;10.48;;;;;;;9.05;100.00;96409.44;5072471;28;20185;-58
2024/01/07 03:36:17;;;;;;;16.27;11.45;;;;;;;9.60;100.00;96501.34;5030093;28;20679;-58
2024/01/07 03:38:42;;;;;;;17.10;9.57;;;;;;;9.65;100.00;96510.28;5030137;28;20191;-58
2024/01/07 03:41:08;;;;;;;14.57;9.60;;;;;;;9.15;100.00;96428.25;5030115;28;20669;-58
2024/01/07 03:43:34;;;;;;;13.30;8.23;;;;;;;9.19;100.00;96419.25;5029847;28;20204;-58
2024/01/07 03:46:00;;;;;;;11.10;8.02;;;;;;;9.58;100.00;96453.22;5029431;28;20268;-58
2024/01/07 03:48:26;;;;;;;13.48;8.45;;;;;;;9.25;100.00;96395.47;5029917;28;20202;-58
2024/01/07 03:50:51;;;;;;;9.55;7.63;;;;;;;9.73;100.00;96476.78;5029918;28;20199;-58
2024/01/07 03:53:18;;;;;;;12.00;9.20;;;;;;;9.69;100.00;96459.97;5029947;28;20190;-58
2024/01/07 03:55:43;;;;;;;17.42;12.57;;;;;;;9.24;100.00;96381.75;5029833;28;20202;-58
2024/01/07 03:58:09;;;;;;;16.55;11.48;;;;;;;9.40;100.00;96407.75;5029801;28;20584;-58
2024/01/07 04:00:34;;;;;;;14.15;8.77;;;;;;;9.68;100.00;96448.00;5030010;28;20186;-58
2024/01/07 04:03:01;;;;;;;10.00;8.35;;;;;;;9.86;100.00;96451.41;5029695;28;20668;-59
2024/01/07 04:05:26;;;;;;;12.30;8.30;;;;;;;9.66;100.00;96421.53;5029697;28;20179;-58
2024/01/07 04:07:52;;;;;;;15.23;8.32;;;;;;;9.82;100.00;96409.56;5060992;28;20192;-58
2024/01/07 04:10:18;;;;;;;14.05;8.60;;;;;;;9.75;100.00;96387.06;5071776;28;20261;-58
2024/01/07 04:12:43;;;;;;;10.57;8.23;;;;;;;9.65;100.00;96376.00;5071892;28;20562;-58
2024/01/07 04:15:10;;;;;;;14.27;7.03;;;;;;;9.18;100.00;96351.38;5071842;28;20639;-58
2024/01/07 04:17:35;;;;;;;8.30;6.43;;;;;;;9.13;100.00;96374.22;5071789;28;20196;-58
2024/01/07 04:20:01;;;;;;;6.25;5.63;;;;;;;9.23;100.00;96377.56;5072092;28;20181;-58
2024/01/07 04:22:27;;;;;;;7.00;4.85;;;;;;;9.54;100.00;96407.22;5071795;28;20611;-58
2024/01/07 04:24:52;;;;;;;8.55;5.47;;;;;;;9.33;100.00;96360.22;5071738;28;20576;-59
2024/01/07 04:27:17;;;;;;;9.18;5.07;;;;;;;9.17;100.00;96328.31;5071419;28;20173;-58
2024/01/07 04:29:43;;;;;;;6.50;4.18;;;;;;;9.06;100.00;96321.59;5071567;28;20196;-58
2024/01/07 04:32:08;;;;;;;7.43;4.80;;;;;;;9.55;100.00;96400.28;5071583;28;20212;-58
2024/01/07 04:34:34;;;;;;;6.95;3.65;;;;;;;9.40;100.00;96389.66;5071540;28;20169;-58
2024/01/07 04:36:59;;;;;;;3.25;1.95;;;;;;;9.49;100.00;96393.94;5048914;28;20711;-58
2024/01/07 04:39:24;;;;;;;7.15;4.43;;;;;;;9.74;100.00;96457.72;5048712;28;20220;-58
2024/01/07 04:41:50;;;;;;;9.32;7.22;;;;;;;9.46;100.00;96417.47;5049013;28;20186;-58
2024/01/07 04:44:15;;;;;;;9.82;8.82;;;;;;;9.80;100.00;96441.69;5049051;28;20178;-58
2024/01/07 04:46:40;;;;;;;15.52;8.90;;;;;;;9.51;100.00;96379.13;5009229;28;20226;-58
2024/01/07 04:49:06;;;;;;;11.95;9.25;;;;;;;9.19;100.00;96349.59;5009194;28;20242;-58
2024/01/07 04:51:32;;;;;;;11.15;8.38;;;;;;;9.64;100.00;96421.66;5009250;28;20198;-58
2024/01/07 04:53:58;;;;;;;9.68;7.18;;;;;;;9.73;100.00;96425.13;5008873;28;20752;-58
2024/01/07 04:56:23;;;;;;;7.45;6.65;;;;;;;9.71;100.00;96429.63;4989384;28;20290;-57
2024/01/07 04:58:49;;;;;;;7.72;5.93;;;;;;;9.70;100.00;96428.03;4989564;28;20678;-57
2024/01/07 05:01:14;;;;;;;6.03;4.95;;;;;;;9.21;100.00;96345.91;4989523;28;20286;-58
2024/01/07 05:03:40;;;;;;;3.47;3.17;;;;;;;9.22;100.00;96360.47;4989627;28;20188;-58
2024/01/07 05:06:08;;;;;;;2.17;2.08;;;;;;;9.73;100.00;96424.34;4989523;28;20184;-58
2024/01/07 05:08:33;;;;;;;1.42;1.13;;;;;;;9.46;100.00;96396.81;4989412;28;20258;-58
2024/01/07 05:10:59;;;;;;;1.60;1.50;;;;;;;9.42;100.00;96431.63;4989506;28;20278;-58
2024/01/07 05:13:24;;;;;;;2.78;1.75;;;;;;;9.35;100.00;96453.81;4989454;28;20573;-58
2024/01/07 05:15:53;;;;;;;3.60;2.20;;;;;;;8.77;100.00;96359.66;4989527;28;20197;-57
2024/01/07 05:18:22;;;;;;;2.35;2.15;;;;;;;8.99;100.00;96395.38;5019411;28;20202;-57
2024/01/07 05:20:47;;;;;;;2.42;1.90;;;;;;;8.96;100.00;96387.91;5028787;28;20656;-58
2024/01/07 05:23:13;;;;;;;1.40;1.30;;;;;;;9.31;100.00;96429.25;5028783;28;20174;-58
2024/01/07 05:25:38;;;;;;;0.80;0.80;;;;;;;9.03;100.00;96370.88;5028258;28;20189;-58
2024/01/07 05:28:04;;;;;;;1.00;0.63;;;;;;;9.15;100.00;96398.09;5062018;28;20185;-58
2024/01/07 05:30:30;;;;;;;0.77;0.77;;;;;;;9.48;100.00;96449.09;5070960;28;20212;-58
2024/01/07 05:32:55;;;;;;;0.60;0.60;;;;;;;9.45;100.00;96433.09;5071008;28;20169;-57
2024/01/07 05:35:23;;;;;;;0.50;0.50;;;;;;;9.49;100.00;96442.97;5070928;28;20656;-57
2024/01/07 05:37:48;;;;;;;0.50;0.50;;;;;;;9.54;100.00;96438.19;5048315;28;20235;-57
2024/01/07 05:40:14;;;;;;;0.43;0.43;;;;;;;9.59;100.00;96443.72;5048460;28;20194;-57
2024/01/07 05:42:39;;;;;;;0.70;0.70;;;;;;;9.55;100.00;96439.00;5048424;28;20190;-58
2024/01/07 05:45:05;;;;;;;0.60;0.60;;;;;;;9.49;100.00;96442.97;5048507;28;20676;-58
2024/01/07 05:47:30;;;;;;;0.90;0.60;;;;;;;8.97;100.00;96363.72;5048272;28;20287;-58
2024/01/07 05:49:56;;;;;;;2.10;1.90;;;;;;;9.26;100.00;96403.06;5048284;28;20270;-58
2024/01/07 05:52:23;;;;;;;2.15;1.85;;;;;;;9.28;100.00;96414.06;5048356;28;20657;-58
2024/01/07 05:54:48;;;;;;;1.65;1.55;;;;;;;9.23;100.00;96405.13;5031576;28;20186;-57
2024/01/07 05:57:14;;;;;;;0.90;0.90;;;;;;;9.13;100.00;96379.38;5048339;28;20321;-58
2024/01/07 05:59:39;;;;;;;1.90;1.05;;;;;;;9.07;100.00;96374.81;5048285;28;20711;-57
2024/01/07 06:02:05;;;;;;;1.50;1.40;;;;;;;8.74;100.00;96313.53;5048274;28;20236;-57
2024/01/07 06:04:31;;;;;;;2.20;2.00;;;;;;;8.68;100.00;96310.72;5048193;28;20189;-57
2024/01/07 06:06:56;;;;;;;2.13;1.92;;;;;;;8.48;100.00;96273.94;5051855;28;20170;-58
2024/01/07 06:09:22;;;;;;;2.13;1.92;;;;;;;9.08;100.00;96371.25;5067982;28;20623;-57
2024/01/07 06:11:47;;;;;;;1.05;1.05;;;;;;;9.07;100.00;96385.13;5074151;28;20175;-58
2024/01/07 06:14:13;;;;;;;1.63;1.35;;;;;;;8.67;100.00;96320.22;5073856;28;20188;-57
2024/01/07 06:16:38;;;;;;;1.35;1.25;;;;;;;8.76;100.00;96350.28;5073648;28;20185;-58
2024/01/07 06:19:03;;;;;;;1.50;1.40;;;;;;;9.22;100.00;96430.13;5074302;28;20208;-57
2024/01/07 06:21:29;;;;;;;1.65;1.50;;;;;;;9.22;100.00;96437.88;5074035;28;20196;-57
2024/01/07 06:23:55;;;;;;;3.28;3.00;;;;;;;9.52;100.00;96458.19;5073804;28;20177;-58
2024/01/07 06:26:20;;;;;;;7.50;5.60;;;;;;;9.17;100.00;96373.00;5073737;28;20548;-57
2024/01/07 06:28:45;;;;;;;7.68;5.90;;;;;;;9.51;100.00;96404.13;5073983;28;20205;-57
2024/01/07 06:31:11;;;;;;;4.90;4.50;;;;;;;9.41;100.00;96347.41;5073777;28;20642;-58
2024/01/07 06:33:36;;;;;;;10.60;5.95;;;;;;;9.88;100.00;96413.31;5073738;28;20173;-58
2024/01/07 06:36:02;;;;;;;8.48;4.32;;;;;;;9.76;100.00;96380.94;5073753;28;20166;-57
2024/01/07 06:38:27;;;;;;;4.93;4.38;;;;;;;9.43;100.00;96355.81;5073659;28;20208;-58
2024/01/07 06:40:54;;;;;;;5.63;3.78;;;;;;;9.68;100.00;96396.34;5071002;28;20185;-58
2024/01/07 06:43:20;;;;;;;4.22;2.92;;;;;;;9.57;100.00;96383.69;5071110;28;20192;-57
2024/01/07 06:45:45;;;;;;;2.70;2.50;;;;;;;9.69;100.00;96398.00;5030955;28;20572;-58
2024/01/07 06:48:11;;;;;;;3.22;2.92;;;;;;;9.43;100.00;96337.75;5031140;28;20206;-58
2024/01/07 06:50:36;;;;;;;3.25;2.85;;;;;;;9.32;100.00;96312.16;5011067;28;20684;-58
2024/01/07 06:53:02;;;;;;;18.25;11.82;;;;;;;9.29;100.00;96322.78;5011283;28;20306;-58
2024/01/07 06:55:27;;;;;;;34.45;19.10;;;;;;;9.53;100.00;96362.50;4971964;28;20621;-58
2024/01/07 06:57:52;;;;;;;44.58;24.13;;;;;;;9.81;100.00;96412.31;4972117;28;20790;-57
2024/01/07 07:00:18;;;;;;;44.60;21.15;;;;;;;9.36;100.00;96334.13;4972115;28;20192;-57
2024/01/07 07:02:43;;;;;;;30.25;16.35;;;;;;;9.33;100.00;96339.56;4972076;28;20675;-58
2024/01/07 07:05:09;;;;;;;35.10;16.58;;;;;;;9.76;100.00;96404.19;4970945;28;20679;-58
2024/01/07 07:07:35;;;;;;;24.83;14.25;;;;;;;9.65;100.00;96394.09;4971708;28;20196;-58
2024/01/07 07:10:00;;;;;;;27.90;15.48;;;;;;;9.93;100.00;96434.34;4971729;28;20251;-58
2024/01/07 07:12:25;;;;;;;20.42;12.07;;;;;;;10.04;100.00;96453.03;4971624;28;20192;-57
2024/01/07 07:14:51;;;;;;;8.52;5.75;;;;;;;10.15;100.00;96446.84;4971636;28;20220;-58
2024/01/07 07:17:16;;;;;;;7.68;3.83;;;;;;;9.82;100.00;96362.28;5012931;28;20293;-57
2024/01/07 07:19:42;;;;;;;5.40;4.00;;;;;;;10.31;100.00;96432.25;5030540;28;20186;-57
2024/01/07 07:22:07;;;;;;;9.82;6.45;;;;;;;10.41;100.00;96437.31;5030239;28;20223;-57
2024/01/07 07:24:33;;;;;;;15.07;8.60;;;;;;;10.61;100.00;96457.66;5030198;28;20229;-58
2024/01/07 07:26:58;;;;;;;7.60;6.10;;;;;;;10.65;100.00;96434.88;5060206;28;20188;-58
2024/01/07 07:29:24;;;;;;;13.02;9.35;;;;;;;10.84;100.00;96463.09;5092679;28;20593;-58
2024/01/07 07:31:50;;;;;;;13.18;10.10;;;;;;;10.56;100.00;96397.81;5092649;28;20310;-58
2024/01/07 07:34:16;;;;;;;22.65;12.95;;;;;;;10.67;100.00;96394.16;5092687;28;20169;-58
2024/01/07 07:36:42;;;;;;;22.35;12.50;;;;;;;10.59;100.00;96363.09;5092634;28;20229;-57
2024/01/07 07:39:09;;;;;;;15.43;9.25;;;;;;;11.11;100.00;96431.88;5092490;28;20176;-58
2024/01/07 07:41:34;;;;;;;10.23;5.65;;;;;;;11.11;100.00;96406.00;5049555;28;20197;-58
2024/01/07 07:43:59;;;;;;;18.00;10.85;;;;;;;11.13;100.00;96404.03;5049754;28;20196;-58
2024/01/07 07:46:25;;;;;;;21.77;12.15;;;;;;;11.39;100.00;96443.59;5049647;28;20284;-58
2024/01/07 07:48:50;;;;;;;20.98;11.57;;;;;;;11.00;100.00;96372.63;5049367;28;20236;-58
2024/01/07 07:51:16;;;;;;;15.68;11.38;;;;;;;11.37;100.00;96417.06;5049268;28;20252;-58
2024/01/07 07:53:41;;;;;;;24.83;13.38;;;;;;;11.42;100.00;96430.34;5049450;28;20226;-58
2024/01/07 07:56:06;;;;;;;22.52;15.65;;;;;;;11.76;100.00;96463.00;5049208;28;20194;-58
2024/01/07 07:58:32;;;;;;;22.33;15.50;;;;;;;11.79;100.00;96443.72;5049516;28;20553;-58
2024/01/07 08:00:58;;;;;;;17.70;13.77;;;;;;;11.46;100.00;96385.03;4989997;28;20218;-57
2024/01/07 08:03:23;;;;;;;18.10;12.05;;;;;;;11.64;100.00;96385.75;4990227;28;20236;-57
2024/01/07 08:05:49;;;;;;;16.40;11.15;;;;;;;12.02;100.00;96436.94;5001678;28;20690;-58
2024/01/07 08:08:16;;;;;;;15.32;10.20;;;;;;;12.11;100.00;96448.91;5009643;28;20284;-58
2024/01/07 08:10:42;;;;;;;11.30;8.20;;;;;;;11.85;100.00;96401.63;5009589;28;20732;-58
2024/01/07 08:13:08;;;;;;;16.48;11.63;;;;;;;11.93;100.00;96393.84;5024109;28;20191;-58
2024/01/07 08:15:34;;;;;;;27.83;16.27;;;;;;;11.74;100.00;96369.06;5029257;28;20183;-58
2024/01/07 08:18:00;;;;;;;33.40;18.05;;;;;;;11.82;100.00;96366.50;5028978;28;20747;-58
2024/01/07 08:20:25;;;;;;;14.05;11.25;;;;;;;12.03;100.00;96397.88;5029152;28;20209;-58
2024/01/07 08:22:51;;;;;;;17.48;11.90;;;;;;;11.88;100.00;96358.06;5029228;28;20641;-58
2024/01/07 08:25:16;;;;;;;16.35;11.05;;;;;;;12.43;100.00;96441.13;4989604;28;20230;-58
2024/01/07 08:27:42;;;;;;;13.43;10.82;;;;;;;12.38;100.00;96433.03;4989612;28;20559;-58
2024/01/07 08:30:08;;;;;;;12.15;9.13;;;;;;;12.42;100.00;96455.88;4988938;28;20277;-58
2024/01/07 08:32:34;;;;;;;15.55;10.38;;;;;;;12.42;100.00;96448.09;5004369;28;20198;-58
2024/01/07 08:35:00;;;;;;;19.30;10.40;;;;;;;12.38;100.00;96436.41;5009249;28;20199;-57
2024/01/07 08:37:26;;;;;;;16.35;11.63;;;;;;;12.27;100.00;96391.88;5009286;28;20187;-58
2024/01/07 08:39:51;;;;;;;23.67;15.32;;;;;;;12.32;100.00;96382.63;5009227;28;20258;-58
2024/01/07 08:42:17;;;;;;;19.58;12.50;;;;;;;12.62;100.00;96418.25;5024736;28;20182;-58
2024/01/07 08:44:42;;;;;;;25.38;14.88;;;;;;;12.79;100.00;96429.38;5028420;28;20253;-57
2024/01/07 08:47:08;;;;;;;18.13;12.15;;;;;;;13.01;100.00;96452.06;5028431;28;20265;-57
2024/01/07 08:49:33;;;;;;;15.32;9.40;;;;;;;12.59;100.00;96381.44;5028481;28;20263;-57
2024/01/07 08:51:59;;;;;;;21.13;11.70;;;;;;;13.15;100.00;96462.56;5028344;28;20263;-57
2024/01/07 08:54:25;;;;;;;16.95;9.77;;;;;;;12.96;100.00;96431.78;5028725;28;20263;-57
2024/01/07 08:56:50;;;;;;;13.13;8.80;;;;;;;12.96;100.00;96436.97;5069580;28;20180;-57
2024/01/07 08:59:16;;;;;;;10.60;7.80;;;;;;;13.20;100.00;96475.84;5090853;28;20176;-57
2024/01/07 09:01:41;;;;;;;12.52;8.48;;;;;;;13.18;100.00;96469.22;5090929;28;20534;-57
2024/01/07 09:04:06;;;;;;;15.52;9.45;;;;;;;13.06;100.00;96445.38;5091190;28;20180;-58
2024/01/07 09:06:32;;;;;;;12.55;8.93;;;;;;;13.04;100.00;96433.53;5091210;28;20650;-58
2024/01/07 09:08:57;;;;;;;13.95;8.48;;;;;;;13.06;100.00;96442.78;5047953;28;20217;-58
2024/01/07 09:11:23;;;;;;;15.60;8.77;;;;;;;13.18;100.00;96461.41;5048492;28;20190;-58
2024/01/07 09:13:50;;;;;;;14.73;9.55;;;;;;;12.91;100.00;96402.09;5048419;28;20197;-58
2024/01/07 09:16:16;;;;;;;15.38;11.20;;;;;;;12.99;100.00;96407.28;5048132;28;20711;-58
2024/01/07 09:18:43;;;;;;;15.85;8.35;;;;;;;13.24;100.00;96442.56;5048030;28;20292;-58
2024/01/07 09:21:09;;;;;;;18.52;9.55;;;;;;;13.30;100.00;96445.28;5048234;28;20237;-58
2024/01/07 09:23:36;;;;;;;13.02;8.80;;;;;;;13.21;100.00;96438.53;5048386;28;20240;-58
2024/01/07 09:26:02;;;;;;;17.83;10.55;;;;;;;13.19;100.00;96426.69;5048379;28;20178;-58
2024/01/07 09:28:27;;;;;;;11.20;9.40;;;;;;;13.10;100.00;96414.69;5048300;28;20208;-58
2024/01/07 09:30:52;;;;;;;12.18;9.23;;;;;;;13.10;100.00;96427.69;5048377;28;20174;-58
2024/01/07 09:33:19;;;;;;;12.05;8.40;;;;;;;13.09;100.00;96420.88;5048293;28;20213;-57
2024/01/07 09:35:45;;;;;;;13.40;9.10;;;;;;;13.05;100.00;96425.59;5048160;28;20190;-58
2024/01/07 09:38:10;;;;;;;12.32;8.65;;;;;;;12.63;100.00;96351.59;5048183;28;20236;-57
2024/01/07 09:40:38;;;;;;;13.93;9.70;;;;;;;12.79;100.00;96357.53;5082707;28;20188;-58
2024/01/07 09:43:04;;;;;;;12.65;9.02;;;;;;;13.13;100.00;96411.78;5094858;28;20191;-58
2024/01/07 09:45:30;;;;;;;18.92;11.13;;;;;;;12.92;100.00;96372.56;5094266;28;20567;-58
2024/01/07 09:47:56;;;;;;;19.40;11.57;;;;;;;12.83;100.00;96347.63;5094632;28;20655;-57
2024/01/07 09:50:22;;;;;;;15.02;11.18;;;;;;;12.69;100.00;96325.78;5094574;28;20204;-59
2024/01/07 09:52:48;;;;;;;17.15;10.30;;;;;;;12.77;100.00;96332.75;5094634;28;20176;-56
2024/01/07 09:55:26;;;;;;;17.08;11.80;;;;;;;12.91;100.00;96335.44;5094570;28;20180;-56
2024/01/07 09:57:51;;;;;;;14.35;8.93;;;;;;;13.20;100.00;96378.97;5094551;28;20187;-57
2024/01/07 10:00:18;;;;;;;15.15;9.65;;;;;;;12.85;100.00;96309.34;5094733;28;20177;-57
2024/01/07 10:02:43;;;;;;;11.52;8.63;;;;;;;12.85;100.00;96304.97;5094333;28;20187;-57
2024/01/07 10:05:09;;;;;;;6.82;5.35;;;;;;;13.26;100.00;96375.69;5094388;28;20169;-57
2024/01/07 10:07:38;;;;;;;9.00;5.53;;;;;;;12.64;100.00;96277.97;5094353;28;20200;-57
2024/01/07 10:10:14;;;;;;;13.75;6.35;;;;;;;13.27;100.00;96366.91;5094188;28;20216;-57
2024/01/07 10:12:39;;;;;;;8.02;5.68;;;;;;;13.25;100.00;96356.69;5094267;28;20263;-57
2024/01/07 10:15:05;;;;;;;6.53;5.32;;;;;;;13.25;100.00;96356.69;5093916;28;20199;-57
2024/01/07 10:17:30;;;;;;;7.28;5.50;;;;;;;13.06;100.00;96322.56;5093931;28;20255;-57
2024/01/07 10:19:56;;;;;;;10.05;6.13;;;;;;;12.84;100.00;96289.56;5093818;28;20580;-57
2024/01/07 10:22:22;;;;;;;6.70;5.80;;;;;;;13.10;100.00;96321.22;5093896;28;20705;-57
2024/01/07 10:24:49;;;;;;;7.70;5.75;;;;;;;12.97;100.00;96288.06;5093320;28;20180;-57
2024/01/07 10:27:14;;;;;;;11.65;5.63;;;;;;;13.05;100.00;96282.00;5093565;28;20537;-57
2024/01/07 10:29:40;;;;;;;11.02;7.18;;;;;;;13.38;100.00;96330.16;5093793;28;20211;-57
2024/01/07 10:32:06;;;;;;;11.77;7.75;;;;;;;13.41;100.00;96322.03;5092580;28;20599;-57
2024/01/07 10:34:33;;;;;;;17.52;11.32;;;;;;;13.41;100.00;96319.44;5094049;28;20264;-57
2024/01/07 10:37:00;;;;;;;57.45;26.98;;;;;;;13.31;100.00;96282.47;5001499;28;20283;-57
2024/01/07 10:39:26;;;;;;;29.33;16.88;;;;;;;13.54;100.00;96312.66;5011327;28;20187;-58
2024/01/07 10:41:57;;;;;;;57.50;24.02;;;;;;;13.69;100.00;96317.91;5011751;28;20289;-58
2024/01/07 10:44:31;;;;;;;16.98;10.80;;;;;;;13.45;100.00;96281.72;5011434;28;20591;-58
2024/01/07 10:46:57;;;;;;;12.30;7.70;;;;;;;13.65;100.00;96306.25;5011432;28;20203;-58
2024/01/07 10:49:25;;;;;;;9.98;8.15;;;;;;;13.32;100.00;96245.13;5010321;28;20218;-58
2024/01/07 10:52:06;;;;;;;14.30;9.38;;;;;;;13.10;100.00;96214.78;5010368;28;20191;-58
2024/01/07 10:54:33;;;;;;;11.25;8.02;;;;;;;13.53;100.00;96297.25;5011266;28;20222;-58
2024/01/07 10:57:07;;;;;;;11.98;7.32;;;;;;;13.29;100.00;96250.69;5010982;28;20305;-58
2024/01/07 10:59:33;;;;;;;28.63;14.10;;;;;;;13.04;100.00;96210.28;5011234;28;20187;-58
2024/01/07 11:01:59;;;;;;;19.02;10.80;;;;;;;13.58;100.00;96285.34;5011189;28;20191;-58
2024/01/07 11:04:36;;;;;;;20.80;11.25;;;;;;;13.67;100.00;96286.09;5011125;28;20187;-58
2024/01/07 11:07:37;;;;;;;11.98;6.90;;;;;;;13.77;100.00;96291.84;5015549;28;20190;-58
2024/01/07 11:10:19;;;;;;;16.92;10.52;;;;;;;13.94;100.00;96304.50;5050600;28;20228;-58
2024/01/07 11:12:54;;;;;;;12.27;7.60;;;;;;;13.73;100.00;96254.19;5050760;28;20196;-58